AirNav   Phillips 66 Aviation Fuel
 
 417 users online  

7N3 Sands Point Seaplane Base
Port Washington, New York, USA

GOING TO PORT WASHINGTON?


FAA INFORMATION EFFECTIVE 08 NOVEMBER 2018

Location

FAA Identifier: 7N3
Lat/Long: 40-49-38.7000N / 073-43-01.5000W
40-49.645000N / 073-43.025000W
40.8274167 / -73.7170833
(estimated)
Elevation: 0 ft. / 0 m (estimated)
Variation: 13W (1985)
From city: 2 miles NW of PORT WASHINGTON, NY
Time zone: UTC -5 (UTC -4 during Daylight Saving Time)
Zip code: 11050

Seaplane Base Operations

Seaplane Base use: Open to the public
Activation date: 05/1948
Control tower: no
ARTCC: NEW YORK CENTER
FSS: NEW YORK FLIGHT SERVICE STATION
NOTAMs facility: ISP (NOTAM-D service available)
Attendance: APR 1-NOV 1 0800-DUSK
Segmented circle: no

Seaplane Base Communications

CTAF: 122.9
WX ASOS at LGA (8 nm SW): PHONE 718-672-6317
WX ASOS at JFK (12 nm S): PHONE 718-656-0956
WX ASOS at HPN (14 nm N): PHONE 914-288-0216
WX ASOS at FRG (15 nm SE): PHONE 631-752-8129
WX AWOS-3PT at JRB (15 nm SW): 128.175 (212-425-1534)
WX ASOS at TEB (16 nm W): 132.025 (201-393-0855)

Nearby radio navigation aids

VOR radial/distance  VOR name  Freq  Var
LGAr081/7.4LA GUARDIA VOR/DME113.1012W
JFKr024/11.9KENNEDY VOR/DME115.9012W
CRIr043/15.2CANARSIE VOR/DME112.3011W
TEBr106/15.7TETERBORO VOR/DME108.4011W
DPKr289/18.9DEER PARK VOR/DME117.7012W
CMKr205/27.8CARMEL VOR/DME116.6012W
BDRr245/33.5BRIDGEPORT VOR/DME108.8012W
COLr044/36.9COLTS NECK VOR/DME115.4011W
SAXr122/39.9SPARTA VORTAC115.7011W

 
NDB name  Hdg/Dist  Freq  Var  ID
FRIKK300/11.140714WFR ..-. .-.
BABYLON316/17.727514WBBN -... -... -.
CHATHAM094/32.825413WCAT -.-. .- -

Seaplane Base Services

Parking: tiedowns
Bottled oxygen: NONE
Bulk oxygen: NONE

Runway Information

Runway 1W/19W

Dimensions: 6000 x 300 ft. / 1829 x 91 m
Surface: water
RUNWAY 1W  RUNWAY 19W
Latitude: 40-49.253978N40-50.235690N
Longitude: 073-43.054278W073-42.903798W
Traffic pattern: leftleft
Runway heading: 020 magnetic, 007 true200 magnetic, 187 true
Runway end identifier lights: nono

Runway 12W/30W

Dimensions: 6000 x 300 ft. / 1829 x 91 m
Surface: water
RUNWAY 12W  RUNWAY 30W
Latitude: 40-49.807862N40-49.280417N
Longitude: 073-43.622568W073-42.522235W
Traffic pattern: leftleft
Runway heading: 135 magnetic, 122 true315 magnetic, 302 true
Runway end identifier lights: nono

Seaplane Base Ownership and Management from official FAA records

Ownership: Privately-owned
Owner: BREWER CAPRI MARINA
15 ORCHARD BEACH BLVD
PORT WASHINGTON, NY 11050
Manager: DAVID DOODY
BREWER CAPRI MARINA, 15 ORCHARD BEACH BLVD
PORT WASHINGTON, NY 11050
Phone 516-883-7800
AFTER HOURS PHONE 914-588-4664

Seaplane Base Operational Statistics

Aircraft operations: 50/year *
100% transient general aviation
* for 12-month period ending 26 September 2016

Additional Remarks

ALL LANDINGS TO BE MADE 2000' FROM SHORE UNLESS EMERGENCY.
NUMEROUS +60 FT SAILBOATS & MASTS
FOR CD CTC NEW YORK APCH AT 516-683-2849.

Instrument Procedures

There are no published instrument procedures at 7N3.

Some nearby airports with instrument procedures:

KLGA - LaGuardia Airport (8 nm SW)
KJFK - John F Kennedy International Airport (12 nm S)
6N5 - East 34th Street Heliport (13 nm SW)
KJRA - West 30th St Heliport (14 nm W)
KHPN - Westchester County Airport (14 nm N)
KFRG - Republic Airport (15 nm SE)
KJRB - Downtown Manhattan/Wall Street Heliport (15 nm SW)
KTEB - Teterboro Airport (16 nm W)
 
Loc | Ops | Rwys | IFR | FBO | Links
Com | Nav | Svcs | Stats | Notes


 
Area around 7N3 (Sands Point Seaplane Base)
 
Road maps at: MapQuest Bing Google
 
Aerial photo
No photo
 
Sectional chart

 
Airport distance calculator
Flying to Sands Point Seaplane Base? Find the distance to fly.

From to 7N3

Sunrise and sunset
Times for 21-Nov-2018
 Local
(UTC-5)
 Zulu
(UTC)
Morning civil twilight06:2011:20
Sunrise06:5011:50
Sunset16:3221:32
Evening civil twilight17:0122:01

Current date and time
Zulu (UTC)  21-Nov-2018 07:16:23
Local (UTC-5)  21-Nov-2018 02:16:23
 
METAR
KLGA 
8nm W 
210651Z 30007KT 10SM BKN045 04/M04 A3006 RMK AO2 SLP180 T00441044
KNYC 
12nm W 
210651Z AUTO 10SM OVC043 03/M05 A3009 RMK AO2 SLP180 T00331050
KJFK 
12nm S 
210651Z 32009KT 10SM BKN042 03/M03 A3008 RMK AO2 SLP185 T00331033 $
KHPN 
14nm N 
210656Z 29008KT 10SM FEW041 01/M07 A3003 RMK AO2 SLP175 T00111067
KFRG 
15nm E 
210653Z AUTO 33007KT 10SM OVC044 03/M06 A3007 RMK AO2 SLP181 T00281061
KJRB 
15nm SW 
210656Z AUTO VRB03KT 10SM OVC042 04/M03 A3008 RMK AO2 SLP185 T00441028
KTEB 
15nm W 
210651Z 29005KT 10SM BKN046 02/M04 A3006 RMK AO2 SLP180 T00221044
TAF
KLGA 
8nm W 
210539Z 2106/2212 30010KT P6SM SCT040 FM211200 25006KT P6SM SCT100 FM211500 25008G16KT P6SM SCT100 FM211800 26011G22KT P6SM SCT100 FM212300 29012G23KT P6SM SCT035 FM220400 31013G24KT P6SM SCT250
KJFK 
12nm S 
210539Z 2106/2212 30009KT P6SM SCT040 FM211100 27007KT P6SM SCT100 FM211400 25009G17KT P6SM SCT100 FM211700 26012G23KT P6SM SCT100 FM212300 29013G25KT P6SM SCT035 FM220400 31014G25KT P6SM SCT250
KHPN 
14nm N 
210539Z 2106/2206 29008KT P6SM SCT040 FM211300 25006KT P6SM SCT100 FM211500 24008G15KT P6SM SCT100 FM211800 26011G22KT P6SM SCT100 FM212300 29012G22KT P6SM SCT035 FM220400 31012G24KT P6SM SCT250 AMD NOT SKED
KTEB 
15nm W 
210539Z 2106/2212 30005KT P6SM SCT040 FM211500 25008G15KT P6SM SCT100 FM211800 26011G21KT P6SM SCT100 FM212300 29011G20KT P6SM SCT035 FM220400 31009G21KT P6SM SCT250
NOTAMs
Click for the latest NOTAMs
NOTAMs are issued by the DoD/FAA and will open in a separate window not controlled by AirNav.

 

 
 

Would you like to see your business listed on this page?

 If your business provides an interesting product or service to pilots, flight crews, aircraft, or users of the Sands Point Seaplane Base, you should consider listing it here.  To start the listing process, click on the button below
 
Add a business
 

Other Pages about Sands Point Seaplane Base

Update a link
 
Copyright © AirNav, LLC. All rights reserved. Privacy Policy  Contact